createdAt,value
2022-08-05T00:03:30.026Z,100.00
2022-08-05T00:08:35.475Z,100.00
2022-08-05T00:13:40.100Z,100.00
2022-08-05T00:18:48.291Z,100.00
2022-08-05T00:24:09.881Z,100.00
2022-08-05T00:29:11.794Z,100.00
2022-08-05T00:34:53.754Z,100.00
2022-08-05T00:39:37.017Z,100.00
2022-08-05T00:44:46.149Z,100.00
2022-08-05T00:49:51.428Z,100.00
2022-08-05T00:54:53.461Z,100.00
2022-08-05T00:59:57.619Z,100.00
2022-08-05T01:04:59.893Z,100.00
2022-08-05T01:10:02.572Z,100.00
2022-08-05T01:15:35.319Z,100.00
2022-08-05T01:20:51.924Z,100.00
2022-08-05T01:26:18.706Z,100.00
2022-08-05T01:31:45.194Z,100.00
2022-08-05T01:36:49.364Z,100.00
2022-08-05T01:41:52.999Z,100.00
2022-08-05T01:46:55.246Z,100.00
2022-08-05T01:52:01.077Z,100.00
2022-08-05T01:58:11.959Z,100.00
2022-08-05T02:02:28.807Z,100.00
2022-08-05T02:07:34.914Z,100.00
2022-08-05T02:12:50.996Z,100.00
2022-08-05T02:18:30.717Z,100.00
2022-08-05T02:23:33.786Z,100.00
2022-08-05T02:28:41.662Z,100.00
2022-08-05T02:33:57.368Z,100.00
2022-08-05T02:39:02.922Z,100.00
2022-08-05T02:44:13.301Z,100.00
2022-08-05T02:49:19.171Z,100.00
2022-08-05T02:54:36.170Z,100.00
2022-08-05T02:59:47.864Z,100.00
2022-08-05T03:04:54.454Z,100.00
2022-08-05T03:09:56.102Z,100.00
2022-08-05T03:14:57.748Z,100.00
2022-08-05T03:19:59.533Z,100.00
2022-08-05T03:25:32.588Z,100.00
2022-08-05T03:30:30.149Z,100.00
2022-08-05T03:35:40.784Z,100.00
2022-08-05T03:40:47.557Z,100.00
2022-08-05T03:45:57.861Z,100.00
2022-08-05T03:52:37.396Z,100.00
2022-08-05T03:56:44.285Z,100.00
2022-08-05T04:01:50.868Z,100.00
2022-08-05T04:06:54.127Z,100.00
2022-08-05T04:11:57.979Z,100.00
2022-08-05T04:17:00.375Z,100.00
2022-08-05T04:22:10.323Z,100.00
2022-08-05T04:27:14.100Z,100.00
2022-08-05T04:32:30.675Z,100.00
2022-08-05T04:38:02.452Z,100.00
2022-08-05T04:42:55.239Z,100.00
2022-08-05T04:48:26.899Z,100.00
2022-08-05T04:53:29.327Z,100.00
2022-08-05T04:58:35.400Z,100.00
2022-08-05T05:03:42.102Z,100.00
2022-08-05T05:08:44.336Z,100.00
2022-08-05T05:13:51.597Z,100.00
2022-08-05T05:19:17.752Z,100.00
2022-08-05T05:24:18.467Z,100.00
2022-08-05T05:29:20.045Z,100.00
2022-08-05T05:34:27.109Z,100.00
2022-08-05T05:39:34.427Z,100.00
2022-08-05T05:44:42.967Z,100.00
2022-08-05T05:49:47.701Z,100.00
2022-08-05T05:55:02.261Z,100.00
2022-08-05T06:00:13.078Z,100.00
2022-08-05T06:05:17.205Z,100.00
2022-08-05T06:10:19.097Z,100.00
2022-08-05T06:15:24.226Z,100.00
2022-08-05T06:20:26.098Z,100.00
2022-08-05T06:26:12.620Z,100.00
2022-08-05T06:30:51.868Z,100.00
2022-08-05T06:36:07.777Z,100.00
2022-08-05T06:41:12.773Z,100.00
2022-08-05T06:46:15.025Z,100.00
2022-08-05T06:51:23.755Z,100.00
2022-08-05T06:56:34.255Z,100.00
2022-08-05T07:01:36.875Z,100.00
2022-08-05T07:06:38.629Z,100.00
2022-08-05T07:11:40.253Z,100.00
2022-08-05T07:18:00.997Z,100.00
2022-08-05T07:22:04.333Z,100.00
2022-08-05T07:27:08.901Z,100.00
2022-08-05T07:32:10.596Z,100.00
2022-08-05T07:37:12.191Z,100.00
2022-08-05T07:42:16.170Z,100.00
2022-08-05T07:47:17.957Z,100.00
2022-08-05T07:52:20.590Z,100.00
2022-08-05T07:57:51.383Z,100.00
2022-08-05T08:03:14.862Z,100.00
2022-08-05T08:08:12.170Z,100.00
2022-08-05T08:13:14.225Z,100.00
2022-08-05T08:18:23.869Z,100.00
2022-08-05T08:24:02.973Z,100.00
2022-08-05T08:28:58.914Z,100.00
2022-08-05T08:34:01.552Z,100.00
2022-08-05T08:39:03.371Z,100.00
2022-08-05T08:45:19.016Z,100.00
2022-08-05T08:50:06.021Z,100.00
2022-08-05T08:54:55.715Z,100.00
2022-08-05T08:59:59.520Z,100.00
2022-08-05T09:05:16.786Z,100.00
2022-08-05T09:10:20.725Z,100.00
2022-08-05T09:15:29.004Z,100.00
2022-08-05T09:20:36.348Z,100.00
2022-08-05T09:26:02.374Z,100.00
2022-08-05T09:31:43.938Z,100.00
2022-08-05T09:36:54.154Z,100.00
2022-08-05T09:42:03.117Z,100.00
2022-08-05T09:47:49.003Z,100.00
2022-08-05T09:52:58.224Z,100.00
2022-08-05T09:58:00.238Z,100.00
2022-08-05T10:03:10.038Z,100.00
2022-08-05T10:08:36.307Z,100.00
2022-08-05T10:13:47.792Z,100.00
2022-08-05T10:18:51.427Z,100.00
2022-08-05T10:23:58.974Z,100.00
2022-08-05T10:29:02.269Z,100.00
2022-08-05T10:34:06.949Z,100.00
2022-08-05T10:39:24.394Z,100.00
2022-08-05T10:44:45.245Z,100.00
2022-08-05T10:50:33.151Z,100.00
2022-08-05T10:55:30.159Z,100.00
2022-08-05T11:00:46.264Z,100.00
2022-08-05T11:06:15.283Z,100.00
2022-08-05T11:11:44.729Z,100.00
2022-08-05T11:17:57.289Z,100.00
2022-08-05T11:22:53.935Z,100.00
2022-08-05T11:28:10.802Z,99.10
2022-08-05T11:33:46.511Z,87.57
2022-08-05T11:38:51.847Z,85.33
2022-08-05T11:44:11.975Z,77.77
2022-08-05T11:49:15.175Z,75.46
2022-08-05T11:54:55.019Z,78.69
2022-08-05T11:59:57.870Z,69.74
2022-08-05T12:05:07.422Z,66.77
2022-08-05T12:10:13.164Z,64.51
2022-08-05T12:15:33.271Z,62.49
2022-08-05T12:20:39.409Z,56.82
2022-08-05T12:25:57.006Z,61.32
2022-08-05T12:31:02.410Z,63.05
2022-08-05T12:36:08.267Z,64.13
2022-08-05T12:41:13.927Z,57.20
2022-08-05T12:46:28.856Z,53.42
2022-08-05T12:52:12.541Z,51.54
2022-08-05T12:56:55.067Z,54.55
2022-08-05T13:02:07.666Z,57.18
2022-08-05T13:07:17.379Z,61.98
2022-08-05T13:12:28.679Z,57.98
2022-08-05T13:17:41.308Z,57.88
2022-08-05T13:22:48.330Z,57.11
2022-08-05T13:27:54.894Z,58.96
2022-08-05T13:32:56.632Z,51.23
2022-08-05T13:37:58.217Z,52.57
2022-08-05T13:43:06.720Z,55.80
2022-08-05T13:48:57.336Z,57.83
2022-08-05T13:53:35.483Z,50.31
2022-08-05T13:58:53.009Z,51.25
2022-08-05T14:03:55.472Z,49.54
2022-08-05T14:08:59.553Z,54.61
2022-08-05T14:14:01.302Z,52.83
2022-08-05T14:19:05.861Z,58.71
2022-08-05T14:24:07.534Z,59.05
2022-08-05T14:29:15.961Z,54.43
2022-08-05T14:34:17.967Z,50.25
2022-08-05T14:39:25.503Z,51.28
2022-08-05T14:44:30.128Z,55.11
2022-08-05T14:49:56.147Z,57.17
2022-08-05T14:54:53.505Z,60.29
2022-08-05T14:59:55.186Z,60.49
2022-08-05T15:04:58.089Z,55.95
2022-08-05T15:10:03.356Z,47.51
2022-08-05T15:15:05.701Z,44.42
2022-08-05T15:20:19.024Z,45.97
2022-08-05T15:25:23.623Z,50.21
2022-08-05T15:30:45.559Z,49.81
2022-08-05T15:35:48.054Z,48.84
2022-08-05T15:41:04.090Z,48.77
2022-08-05T15:46:13.135Z,50.28
2022-08-05T15:51:16.173Z,50.62
2022-08-05T15:56:19.157Z,50.79
2022-08-05T16:01:22.243Z,50.90
2022-08-05T16:06:31.172Z,52.15
2022-08-05T16:11:42.790Z,53.03
2022-08-05T16:16:46.117Z,52.50
2022-08-05T16:22:00.359Z,52.43
2022-08-05T16:27:04.762Z,54.33
2022-08-05T16:32:09.782Z,54.48
2022-08-05T16:38:01.714Z,55.88
2022-08-05T16:42:35.101Z,57.05
2022-08-05T16:47:48.295Z,58.08
2022-08-05T16:52:57.232Z,57.33
2022-08-05T16:58:01.457Z,57.62
2022-08-05T17:03:15.402Z,55.30
2022-08-05T17:08:36.423Z,54.31
2022-08-05T17:13:45.387Z,54.46
2022-08-05T17:18:47.023Z,55.08
2022-08-05T17:24:04.827Z,53.25
2022-08-05T17:29:10.316Z,53.62
2022-08-05T17:34:11.923Z,55.47
2022-08-05T17:39:23.894Z,51.74
2022-08-05T17:44:32.489Z,48.82
2022-08-05T17:49:59.640Z,48.49
2022-08-05T17:54:55.888Z,46.74
2022-08-05T18:00:05.561Z,47.10
2022-08-05T18:05:08.295Z,45.66
2022-08-05T18:10:11.453Z,46.23
2022-08-05T18:15:15.821Z,44.83
2022-08-05T18:20:17.368Z,45.54
2022-08-05T18:25:19.109Z,47.22
2022-08-05T18:30:23.801Z,48.65
2022-08-05T18:35:49.516Z,47.58
2022-08-05T18:41:56.162Z,47.54
2022-08-05T18:46:12.868Z,47.55
2022-08-05T18:52:04.795Z,47.39
2022-08-05T18:56:36.003Z,48.29
2022-08-05T19:01:48.145Z,47.80
2022-08-05T19:06:59.896Z,48.99
2022-08-05T19:12:01.826Z,49.19
2022-08-05T19:17:03.503Z,50.25
2022-08-05T19:22:08.172Z,51.92
2022-08-05T19:27:10.285Z,53.34
2022-08-05T19:32:12.143Z,54.33
2022-08-05T19:37:15.533Z,54.58
2022-08-05T19:42:17.375Z,53.91
2022-08-05T19:47:19.798Z,54.32
2022-08-05T19:52:31.399Z,54.62
2022-08-05T19:57:47.695Z,55.54
2022-08-05T20:02:55.657Z,54.78
2022-08-05T20:07:59.027Z,56.09
2022-08-05T20:13:00.933Z,57.01
2022-08-05T20:18:02.951Z,57.09
2022-08-05T20:23:04.921Z,58.19
2022-08-05T20:28:07.807Z,57.06
2022-08-05T20:33:15.549Z,57.44
2022-08-05T20:38:22.661Z,57.26
2022-08-05T20:43:58.306Z,57.63
2022-08-05T20:48:51.077Z,57.73
2022-08-05T20:53:56.176Z,58.80
2022-08-05T20:59:00.095Z,60.24
2022-08-05T21:04:12.943Z,60.75
2022-08-05T21:09:15.096Z,61.26
2022-08-05T21:14:16.893Z,61.90
2022-08-05T21:19:20.500Z,62.35
2022-08-05T21:24:25.188Z,62.84
2022-08-05T21:29:32.187Z,63.50
2022-08-05T21:34:35.595Z,64.57
2022-08-05T21:39:40.409Z,64.72
2022-08-05T21:44:42.524Z,65.34
2022-08-05T21:50:00.091Z,66.29
2022-08-05T21:55:06.418Z,67.00
2022-08-05T22:00:11.260Z,67.31
2022-08-05T22:05:16.204Z,68.18
2022-08-05T22:10:27.065Z,69.25
2022-08-05T22:15:56.438Z,70.18
2022-08-05T22:20:51.725Z,69.95
2022-08-05T22:26:10.682Z,71.22
2022-08-05T22:31:13.081Z,71.96
2022-08-05T22:36:17.115Z,72.70
2022-08-05T22:42:05.481Z,74.47
2022-08-05T22:46:41.611Z,76.36
2022-08-05T22:52:05.559Z,76.23
2022-08-05T22:57:06.050Z,76.48
2022-08-05T23:02:08.106Z,77.56
2022-08-05T23:07:09.746Z,79.23
2022-08-05T23:12:14.658Z,80.96
2022-08-05T23:17:16.451Z,80.37
2022-08-05T23:22:27.828Z,81.23
2022-08-05T23:27:42.250Z,82.73
2022-08-05T23:32:45.328Z,82.59
2022-08-05T23:37:47.023Z,81.91
2022-08-05T23:42:53.548Z,81.92
2022-08-05T23:47:59.399Z,79.18
2022-08-05T23:53:03.231Z,78.98
2022-08-05T23:58:04.986Z,80.28
